Time;durP1;ratioP1;P1;durP2;ratioP2;P2;SDS_P1;SDS_P2;PMS_P1;PMS_P2;Temp;Humidity;BMP_temperature;BMP_pressure;BME280_temperature;BME280_humidity;BME280_pressure;Samples;Min_cycle;Max_cycle;Signal;HPM_P1;HPM_P2
2022/07/13 00:00:21;;;;;;;4.70;3.03;;;23.20;65.50;;;;;;6075671;23;90917;-85
2022/07/13 00:02:47;;;;;;;3.40;3.10;;;23.20;65.40;;;;;;6099513;23;89976;-85
2022/07/13 00:05:12;;;;;;;4.70;2.67;;;23.20;65.40;;;;;;6076108;23;87276;-85
2022/07/13 00:07:38;;;;;;;2.72;2.53;;;23.20;65.40;;;;;;6101794;23;86349;-85
2022/07/13 00:10:04;;;;;;;2.88;2.60;;;23.20;65.40;;;;;;6074512;23;88948;-86
2022/07/13 00:12:32;;;;;;;4.47;2.80;;;23.20;65.40;;;;;;6101212;23;87582;-86
2022/07/13 00:14:58;;;;;;;3.58;2.40;;;23.20;65.50;;;;;;6100867;23;88255;-86
2022/07/13 00:17:23;;;;;;;4.88;3.13;;;23.20;65.50;;;;;;6075076;23;88023;-85
2022/07/13 00:19:49;;;;;;;2.92;2.58;;;23.20;65.40;;;;;;6100487;23;88069;-85
2022/07/13 00:22:15;;;;;;;2.60;2.38;;;23.20;65.30;;;;;;6098111;23;90415;-86
2022/07/13 00:24:40;;;;;;;3.60;2.80;;;23.20;65.30;;;;;;6073869;23;87272;-85
2022/07/13 00:27:06;;;;;;;2.70;2.38;;;23.20;65.30;;;;;;6098477;23;88005;-86
2022/07/13 00:29:32;;;;;;;3.70;3.17;;;23.20;65.30;;;;;;6100983;23;87870;-86
2022/07/13 00:31:59;;;;;;;2.92;2.63;;;23.20;65.30;;;;;;6074917;23;89881;-85
2022/07/13 00:34:32;;;;;;;3.85;2.70;;;23.20;65.20;;;;;;6075313;23;87762;-85
2022/07/13 00:36:58;;;;;;;3.88;2.78;;;23.20;65.40;;;;;;6074998;23;88949;-86
2022/07/13 00:39:24;;;;;;;3.13;2.92;;;23.20;65.40;;;;;;6074451;23;91861;-86
2022/07/13 00:41:50;;;;;;;2.83;2.53;;;23.20;65.30;;;;;;6101321;23;88142;-85
2022/07/13 00:44:16;;;;;;;4.35;2.53;;;23.20;65.20;;;;;;6101829;23;86833;-85
2022/07/13 00:46:47;;;;;;;2.67;2.47;;;23.20;65.20;;;;;;6074846;23;89743;-85
2022/07/13 00:49:13;;;;;;;2.88;2.58;;;23.20;65.30;;;;;;6100870;23;88110;-85
2022/07/13 00:51:39;;;;;;;2.80;2.40;;;23.20;65.20;;;;;;6101241;23;87655;-85
2022/07/13 00:54:06;;;;;;;2.92;2.38;;;23.20;65.80;;;;;;6074463;23;87531;-86
2022/07/13 00:56:31;;;;;;;3.55;2.83;;;23.20;65.80;;;;;;6102179;23;86745;-85
2022/07/13 00:59:00;;;;;;;2.70;2.50;;;23.20;65.80;;;;;;6099751;23;89581;-85
2022/07/13 01:01:27;;;;;;;3.72;2.67;;;23.20;65.90;;;;;;6101048;23;87901;-86
2022/07/13 01:03:52;;;;;;;3.03;2.72;;;23.20;65.90;;;;;;6074299;23;87871;-85
2022/07/13 01:06:18;;;;;;;2.67;2.47;;;23.20;65.90;;;;;;6101313;23;86936;-85
2022/07/13 01:08:45;;;;;;;2.85;2.60;;;23.20;65.90;;;;;;6099758;23;87646;-86
2022/07/13 01:11:31;;;;;;;2.65;2.45;;;23.20;65.90;;;;;;6101041;23;87470;-85
2022/07/13 01:13:57;;;;;;;2.80;2.42;;;23.20;66.00;;;;;;6099448;23;87237;-86
2022/07/13 01:16:23;;;;;;;2.60;2.35;;;23.20;66.50;;;;;;6101822;23;86925;-85
2022/07/13 01:18:51;;;;;;;3.60;2.67;;;23.20;65.90;;;;;;6076692;23;90577;-87
2022/07/13 01:21:18;;;;;;;2.90;2.58;;;23.20;65.90;;;;;;6099170;23;89393;-86
2022/07/13 01:23:44;;;;;;;4.55;2.95;;;23.20;65.90;;;;;;6075759;23;87150;-86
2022/07/13 01:26:11;;;;;;;3.35;2.75;;;23.20;66.00;;;;;;6103760;23;86918;-85
2022/07/13 01:28:37;;;;;;;3.80;2.53;;;23.20;66.10;;;;;;6102593;23;87785;-86
2022/07/13 01:31:03;;;;;;;3.20;2.50;;;23.20;65.80;;;;;;6076618;23;91660;-85
2022/07/13 01:33:29;;;;;;;3.25;2.80;;;23.20;65.90;;;;;;6103646;23;87205;-85
2022/07/13 01:35:55;;;;;;;3.70;2.60;;;23.20;65.80;;;;;;6100839;23;89261;-86
2022/07/13 01:38:22;;;;;;;2.83;2.35;;;23.20;65.90;;;;;;6101328;23;90507;-85
2022/07/13 01:40:47;;;;;;;3.05;2.75;;;23.20;65.80;;;;;;6104036;23;87397;-86
2022/07/13 01:43:13;;;;;;;3.60;2.83;;;23.20;66.10;;;;;;6103351;23;86904;-85
2022/07/13 01:45:50;;;;;;;2.83;2.60;;;23.20;65.80;;;;;;6101690;23;86767;-86
2022/07/13 01:48:15;;;;;;;3.55;2.90;;;23.20;65.90;;;;;;6074999;23;89935;-85
2022/07/13 01:50:41;;;;;;;2.58;2.38;;;23.20;65.80;;;;;;6077896;23;90151;-86
2022/07/13 01:53:07;;;;;;;2.70;2.50;;;23.20;65.80;;;;;;6101728;23;87838;-85
2022/07/13 01:55:32;;;;;;;2.90;2.60;;;23.20;66.00;;;;;;6076452;23;89527;-86
2022/07/13 01:57:59;;;;;;;2.88;2.50;;;23.20;66.00;;;;;;6075549;23;90758;-86
2022/07/13 02:00:26;;;;;;;2.50;2.30;;;23.20;65.80;;;;;;6103447;23;87224;-85
2022/07/13 02:02:52;;;;;;;2.75;2.40;;;23.20;65.70;;;;;;6101663;23;86934;-86
2022/07/13 02:05:18;;;;;;;3.53;2.55;;;23.20;65.80;;;;;;6075362;23;89379;-86
2022/07/13 02:07:44;;;;;;;3.10;2.80;;;23.20;65.40;;;;;;6075694;23;90755;-85
2022/07/13 02:10:11;;;;;;;2.60;2.40;;;23.20;66.40;;;;;;6100765;23;87455;-86
2022/07/13 02:12:38;;;;;;;3.00;2.70;;;23.20;65.50;;;;;;6101205;23;87270;-86
2022/07/13 02:15:03;;;;;;;2.25;2.05;;;23.20;65.30;;;;;;6102294;23;87039;-85
2022/07/13 02:17:29;;;;;;;2.40;2.20;;;23.20;65.40;;;;;;6100873;23;90471;-86
2022/07/13 02:19:56;;;;;;;2.30;2.10;;;23.20;65.40;;;;;;6102094;23;88262;-85
2022/07/13 02:22:21;;;;;;;3.15;2.55;;;23.20;65.50;;;;;;6076593;23;86854;-86
2022/07/13 02:24:47;;;;;;;2.70;2.50;;;23.20;65.40;;;;;;6102584;23;87297;-86
2022/07/13 02:27:13;;;;;;;2.50;2.30;;;23.20;65.30;;;;;;6076285;23;89567;-86
2022/07/13 02:29:46;;;;;;;2.65;2.45;;;23.20;65.30;;;;;;6102346;23;90206;-86
2022/07/13 02:32:11;;;;;;;2.33;2.13;;;23.20;65.50;;;;;;6077505;23;87325;-85
2022/07/13 02:34:37;;;;;;;2.90;2.40;;;23.20;65.30;;;;;;6076421;23;87891;-86
2022/07/13 02:37:02;;;;;;;3.10;2.80;;;23.20;65.40;;;;;;6101671;23;87864;-86
2022/07/13 02:39:28;;;;;;;3.35;2.72;;;23.20;65.40;;;;;;6100248;23;90378;-86
2022/07/13 02:41:54;;;;;;;2.90;2.60;;;23.20;65.60;;;;;;6100330;23;87959;-86
2022/07/13 02:44:19;;;;;;;2.40;2.20;;;23.20;65.30;;;;;;6104061;23;87046;-85
2022/07/13 02:46:45;;;;;;;2.47;2.28;;;23.20;65.40;;;;;;6104480;23;87635;-87
2022/07/13 02:49:10;;;;;;;3.05;2.47;;;23.10;65.40;;;;;;6104273;23;86736;-85
2022/07/13 02:51:36;;;;;;;2.33;2.13;;;23.20;65.50;;;;;;6078183;23;87292;-85
2022/07/13 02:54:02;;;;;;;3.00;2.63;;;23.10;65.40;;;;;;6105264;23;86821;-85
2022/07/13 02:56:27;;;;;;;2.92;2.40;;;23.20;65.50;;;;;;6104092;23;86973;-86
2022/07/13 02:58:53;;;;;;;3.88;2.58;;;23.10;65.30;;;;;;6078574;23;89181;-85
2022/07/13 03:01:19;;;;;;;2.80;2.55;;;23.10;65.40;;;;;;6104113;23;86945;-86
2022/07/13 03:03:44;;;;;;;2.67;2.40;;;23.10;66.20;;;;;;6102089;23;87013;-85
2022/07/13 03:06:10;;;;;;;2.47;2.28;;;23.20;65.30;;;;;;6099447;23;91211;-85
2022/07/13 03:08:35;;;;;;;2.90;2.70;;;23.20;65.30;;;;;;6102085;23;88717;-85
2022/07/13 03:11:01;;;;;;;2.78;2.58;;;23.10;65.30;;;;;;6103557;23;87041;-86
2022/07/13 03:13:27;;;;;;;2.55;2.35;;;23.10;65.30;;;;;;6077119;23;89610;-86
2022/07/13 03:15:52;;;;;;;2.67;2.28;;;23.10;65.30;;;;;;6073599;23;90547;-85
2022/07/13 03:18:27;;;;;;;2.67;2.47;;;23.10;65.40;;;;;;6074833;23;89398;-86
2022/07/13 03:20:53;;;;;;;2.55;2.25;;;23.10;65.30;;;;;;6101694;23;86894;-87
2022/07/13 03:23:19;;;;;;;2.53;2.10;;;23.10;65.10;;;;;;6101181;23;86323;-85
2022/07/13 03:25:44;;;;;;;3.05;2.42;;;23.10;65.20;;;;;;6099594;23;87778;-85
2022/07/13 03:28:10;;;;;;;2.83;2.38;;;23.20;65.10;;;;;;6101393;23;87553;-85
2022/07/13 03:30:35;;;;;;;2.90;2.45;;;23.10;65.30;;;;;;6074756;23;88162;-86
2022/07/13 03:33:01;;;;;;;2.63;2.28;;;23.10;65.00;;;;;;6101133;23;86952;-86
2022/07/13 03:35:27;;;;;;;3.75;2.58;;;23.10;65.20;;;;;;6074784;23;90593;-87
2022/07/13 03:37:52;;;;;;;2.40;2.20;;;23.10;65.20;;;;;;6099650;23;90498;-85
2022/07/13 03:40:18;;;;;;;3.20;2.75;;;23.10;64.70;;;;;;6102090;23;86756;-86
2022/07/13 03:42:43;;;;;;;2.35;2.10;;;23.10;64.60;;;;;;6100923;23;87436;-85
2022/07/13 03:45:09;;;;;;;2.67;2.30;;;23.10;64.60;;;;;;6074292;23;90076;-85
2022/07/13 03:47:35;;;;;;;2.50;2.30;;;23.10;64.60;;;;;;6075193;23;90163;-85
2022/07/13 03:50:01;;;;;;;2.42;2.22;;;23.10;64.80;;;;;;6099273;23;87343;-86
2022/07/13 03:52:26;;;;;;;2.30;2.10;;;23.10;64.60;;;;;;6102202;23;86866;-86
2022/07/13 03:54:52;;;;;;;3.75;2.70;;;23.10;64.70;;;;;;6101374;23;88949;-86
2022/07/13 03:57:17;;;;;;;2.53;2.33;;;23.10;64.60;;;;;;6101418;23;88555;-85
2022/07/13 03:59:43;;;;;;;2.80;2.40;;;23.10;64.70;;;;;;6102486;23;86915;-86
2022/07/13 04:02:08;;;;;;;2.45;2.13;;;23.10;64.60;;;;;;6101123;23;87337;-85
2022/07/13 04:04:34;;;;;;;3.28;2.35;;;23.10;64.70;;;;;;6100971;23;88053;-86
2022/07/13 04:07:17;;;;;;;2.40;2.20;;;23.10;64.60;;;;;;6100412;23;87593;-86
2022/07/13 04:09:43;;;;;;;2.63;2.42;;;23.10;64.70;;;;;;6101803;23;86947;-85
2022/07/13 04:12:08;;;;;;;2.40;2.20;;;23.10;64.70;;;;;;6101628;23;86516;-86
2022/07/13 04:14:34;;;;;;;2.70;2.50;;;23.10;64.70;;;;;;6101054;23;87746;-86
2022/07/13 04:17:00;;;;;;;2.55;2.28;;;23.10;64.80;;;;;;6075693;23;89371;-85
2022/07/13 04:19:25;;;;;;;2.40;2.20;;;23.10;64.70;;;;;;6074984;23;88111;-86
2022/07/13 04:21:51;;;;;;;3.47;2.50;;;23.10;64.70;;;;;;6101109;23;87039;-86
2022/07/13 04:24:17;;;;;;;2.40;2.20;;;23.10;64.60;;;;;;6072592;23;91160;-86
2022/07/13 04:26:42;;;;;;;2.50;2.30;;;23.10;64.40;;;;;;6103961;23;87311;-86
2022/07/13 04:29:08;;;;;;;2.50;2.30;;;23.10;64.60;;;;;;6103474;23;87219;-86
2022/07/13 04:31:33;;;;;;;2.50;2.30;;;23.10;64.50;;;;;;6104507;23;86845;-86
2022/07/13 04:33:59;;;;;;;2.88;1.98;;;23.10;64.70;;;;;;6099608;23;89159;-86
2022/07/13 04:36:25;;;;;;;2.97;2.45;;;23.10;64.60;;;;;;6100720;23;86500;-85
2022/07/13 04:38:50;;;;;;;2.50;2.30;;;23.10;64.60;;;;;;6073577;23;87253;-85
2022/07/13 04:41:16;;;;;;;2.20;2.00;;;23.10;64.80;;;;;;6099051;23;89301;-86
2022/07/13 04:43:45;;;;;;;2.33;2.08;;;23.10;64.60;;;;;;6100135;23;88869;-85
2022/07/13 04:46:16;;;;;;;2.60;2.40;;;23.10;64.70;;;;;;6099149;23;88642;-85
2022/07/13 04:48:49;;;;;;;2.20;2.00;;;23.10;64.70;;;;;;6075686;23;86830;-85
2022/07/13 04:51:14;;;;;;;2.78;2.50;;;23.10;64.70;;;;;;6075909;23;89186;-85
2022/07/13 04:53:40;;;;;;;2.58;2.38;;;23.10;64.80;;;;;;6098366;23;89840;-86
2022/07/13 04:56:06;;;;;;;2.60;2.40;;;23.10;64.80;;;;;;6100850;23;88068;-84
2022/07/13 04:58:32;;;;;;;2.60;2.40;;;23.10;64.90;;;;;;6101662;23;87148;-85
2022/07/13 05:01:00;;;;;;;2.50;2.25;;;23.10;65.00;;;;;;6100979;23;86194;-85
2022/07/13 05:03:26;;;;;;;2.58;2.38;;;23.20;64.90;;;;;;6100912;23;87701;-85
2022/07/13 05:05:52;;;;;;;2.15;1.95;;;23.10;64.70;;;;;;6072994;23;90448;-85
2022/07/13 05:08:18;;;;;;;2.55;2.35;;;23.10;64.80;;;;;;6099102;23;87948;-86
2022/07/13 05:10:45;;;;;;;2.45;2.25;;;23.10;65.10;;;;;;6098899;23;89182;-84
2022/07/13 05:13:10;;;;;;;2.97;2.20;;;23.10;65.10;;;;;;6073813;23;88827;-85
2022/07/13 05:15:36;;;;;;;2.50;2.30;;;23.10;64.90;;;;;;6100611;23;87845;-86
2022/07/13 05:18:02;;;;;;;2.53;2.33;;;23.10;65.10;;;;;;6100918;23;86930;-85
2022/07/13 05:20:28;;;;;;;2.78;2.55;;;23.10;65.10;;;;;;6101249;23;87245;-85
2022/07/13 05:22:53;;;;;;;3.00;2.67;;;23.10;65.10;;;;;;6074016;23;90464;-85
2022/07/13 05:25:20;;;;;;;3.83;2.42;;;23.10;65.00;;;;;;6097955;23;89684;-85
2022/07/13 05:27:49;;;;;;;2.40;2.20;;;23.10;65.20;;;;;;6100938;23;86942;-85
2022/07/13 05:30:17;;;;;;;2.60;2.40;;;23.10;65.10;;;;;;6074115;23;88094;-85
2022/07/13 05:32:43;;;;;;;2.45;2.13;;;23.10;65.10;;;;;;6100979;23;88748;-85
2022/07/13 05:35:08;;;;;;;2.65;2.45;;;23.10;65.10;;;;;;6075070;23;90887;-86
2022/07/13 05:37:34;;;;;;;2.58;2.38;;;23.10;65.00;;;;;;6073908;23;87008;-85
2022/07/13 05:40:00;;;;;;;2.13;1.92;;;23.10;65.00;;;;;;6099552;23;87053;-84
2022/07/13 05:42:28;;;;;;;8.32;2.50;;;23.10;64.70;;;;;;6074308;23;90473;-86
2022/07/13 05:44:54;;;;;;;2.17;2.00;;;23.10;64.60;;;;;;6074671;23;90483;-87
2022/07/13 05:47:20;;;;;;;2.85;2.10;;;23.10;64.40;;;;;;6075017;23;87720;-85
2022/07/13 05:49:45;;;;;;;2.30;2.10;;;23.10;64.60;;;;;;6075333;23;88451;-87
2022/07/13 05:52:11;;;;;;;4.20;2.33;;;23.20;64.50;;;;;;6075732;23;90066;-87
2022/07/13 05:54:37;;;;;;;4.05;2.67;;;23.10;64.10;;;;;;6074709;23;89239;-86
2022/07/13 05:57:03;;;;;;;3.70;2.05;;;23.10;64.40;;;;;;6104099;23;88241;-85
2022/07/13 05:59:28;;;;;;;3.55;2.15;;;23.10;63.00;;;;;;6102617;23;87298;-86
2022/07/13 06:01:54;;;;;;;4.28;2.17;;;23.20;62.70;;;;;;6102611;23;87493;-85
2022/07/13 06:04:20;;;;;;;5.78;2.15;;;23.20;62.00;;;;;;6101841;23;87049;-86
2022/07/13 06:06:46;;;;;;;4.72;2.20;;;23.20;62.30;;;;;;6101767;23;86946;-85
2022/07/13 06:09:12;;;;;;;6.32;2.35;;;23.20;62.80;;;;;;6100369;23;86977;-85
2022/07/13 06:11:39;;;;;;;5.32;2.50;;;23.20;62.70;;;;;;6099893;23;88086;-90
2022/07/13 06:14:05;;;;;;;8.63;3.33;;;23.20;64.20;;;;;;6076756;23;89278;-88
2022/07/13 06:16:38;;;;;;;10.68;2.78;;;23.20;64.10;;;;;;6101852;23;86733;-87
2022/07/13 06:19:04;;;;;;;5.32;2.25;;;23.10;64.30;;;;;;6103220;23;86925;-88
2022/07/13 06:21:31;;;;;;;8.05;3.13;;;23.20;64.10;;;;;;6102603;23;88607;-87
2022/07/13 06:23:57;;;;;;;7.82;3.00;;;23.20;64.10;;;;;;6102638;23;87483;-88
2022/07/13 06:26:22;;;;;;;6.70;3.30;;;23.10;63.80;;;;;;6077470;23;86945;-88
2022/07/13 06:28:48;;;;;;;10.73;3.08;;;23.10;63.80;;;;;;6076824;23;88443;-88
2022/07/13 06:31:14;;;;;;;10.15;2.80;;;23.10;63.90;;;;;;6069197;23;90438;-87
2022/07/13 06:33:41;;;;;;;9.90;3.20;;;23.10;64.60;;;;;;6101422;23;87642;-87
2022/07/13 06:36:08;;;;;;;5.28;2.60;;;23.10;64.30;;;;;;6100537;23;87016;-87
2022/07/13 06:38:33;;;;;;;5.68;2.78;;;23.10;64.40;;;;;;6101514;23;86421;-87
2022/07/13 06:41:00;;;;;;;6.80;3.05;;;23.10;64.40;;;;;;6074182;23;90521;-87
2022/07/13 06:43:26;;;;;;;6.82;2.55;;;23.10;64.40;;;;;;6101850;23;88107;-85
2022/07/13 06:45:55;;;;;;;6.47;2.90;;;23.20;64.50;;;;;;6103290;23;87861;-83
2022/07/13 06:48:20;;;;;;;7.57;2.92;;;23.10;64.40;;;;;;6103579;23;86891;-87
2022/07/13 06:50:46;;;;;;;4.55;2.67;;;23.10;64.50;;;;;;6102002;23;87738;-86
2022/07/13 06:53:12;;;;;;;6.35;2.85;;;23.10;64.40;;;;;;6101503;23;86896;-87
2022/07/13 06:55:37;;;;;;;7.15;2.90;;;23.20;64.40;;;;;;6099103;23;86915;-87
2022/07/13 06:58:03;;;;;;;3.83;2.58;;;23.20;64.60;;;;;;6101971;23;86804;-85
2022/07/13 07:00:30;;;;;;;6.95;3.03;;;23.10;64.50;;;;;;6099988;23;87907;-88
2022/07/13 07:02:56;;;;;;;3.97;2.95;;;23.20;64.50;;;;;;6101268;23;86422;-85
2022/07/13 07:05:22;;;;;;;18.38;3.65;;;23.20;64.50;;;;;;6104437;23;87262;-86
2022/07/13 07:07:47;;;;;;;11.13;3.78;;;23.20;64.50;;;;;;6102478;23;86913;-86
2022/07/13 07:10:13;;;;;;;13.15;3.53;;;23.20;64.60;;;;;;5981065;23;90695;-88
2022/07/13 07:12:39;;;;;;;29.33;6.75;;;23.20;65.20;;;;;;6091825;23;88047;-81
2022/07/13 07:15:06;;;;;;;38.05;8.70;;;23.20;64.50;;;;;;6100549;23;86934;-85
2022/07/13 07:17:32;;;;;;;33.53;7.57;;;23.20;64.60;;;;;;6074126;23;89601;-87
2022/07/13 07:20:04;;;;;;;26.75;7.97;;;23.20;64.50;;;;;;6101272;23;87387;-85
2022/07/13 07:22:29;;;;;;;28.67;8.32;;;23.20;64.40;;;;;;6100946;23;87383;-86
2022/07/13 07:24:56;;;;;;;39.00;9.25;;;23.20;64.50;;;;;;6074862;23;87410;-86
2022/07/13 07:27:22;;;;;;;25.48;8.02;;;23.20;64.50;;;;;;6101116;23;86092;-85
2022/07/13 07:29:48;;;;;;;32.33;8.38;;;23.20;64.50;;;;;;6096539;23;88095;-84
2022/07/13 07:32:13;;;;;;;38.10;8.95;;;23.20;64.30;;;;;;6100178;23;88087;-86
2022/07/13 07:34:39;;;;;;;35.03;9.40;;;23.20;64.40;;;;;;6098054;23;87805;-87
2022/07/13 07:37:04;;;;;;;36.20;10.52;;;23.20;65.10;;;;;;6101264;23;87676;-85
2022/07/13 07:39:30;;;;;;;27.25;8.88;;;23.20;64.40;;;;;;6101211;23;87679;-85
2022/07/13 07:41:56;;;;;;;31.25;8.65;;;23.20;64.50;;;;;;6102597;23;87858;-86
2022/07/13 07:44:29;;;;;;;28.45;8.82;;;23.20;64.40;;;;;;6102319;23;86806;-85
2022/07/13 07:46:55;;;;;;;24.23;7.85;;;23.20;64.60;;;;;;6103691;23;86906;-86
2022/07/13 07:49:21;;;;;;;28.73;9.13;;;23.20;65.40;;;;;;6103764;23;87513;-86
2022/07/13 07:51:46;;;;;;;24.45;7.30;;;23.20;64.20;;;;;;6102886;23;87144;-87
2022/07/13 07:54:12;;;;;;;23.20;7.75;;;23.20;64.20;;;;;;6104166;23;86796;-85
2022/07/13 07:56:37;;;;;;;22.45;7.65;;;23.20;64.00;;;;;;6104825;23;86863;-88
2022/07/13 07:59:03;;;;;;;23.75;8.10;;;23.20;64.20;;;;;;6103823;23;88484;-87
2022/07/13 08:01:29;;;;;;;26.05;7.78;;;23.20;64.30;;;;;;6104212;23;88478;-86
2022/07/13 08:03:55;;;;;;;24.45;7.10;;;23.20;64.30;;;;;;6103272;23;87224;-85
2022/07/13 08:06:21;;;;;;;19.23;6.93;;;23.20;64.40;;;;;;6098681;23;89696;-86
2022/07/13 08:08:46;;;;;;;22.80;6.35;;;23.20;64.10;;;;;;6075579;23;91863;-86
2022/07/13 08:11:16;;;;;;;22.25;7.00;;;23.20;63.90;;;;;;6104513;23;87055;-86
2022/07/13 08:13:42;;;;;;;;;;;23.20;64.00;;;;;;6103783;23;87026;-86
2022/07/13 08:16:10;;;;;;;17.65;6.60;;;23.20;64.00;;;;;;6104925;23;87490;-87
2022/07/13 08:18:36;;;;;;;13.70;6.18;;;23.20;63.80;;;;;;6104638;23;87445;-87
2022/07/13 08:21:02;;;;;;;15.15;5.97;;;23.20;63.70;;;;;;6102693;23;87762;-85
2022/07/13 08:26:11;;;;;;;13.35;5.03;;;23.20;63.80;;;;;;6104056;23;87025;-87
2022/07/13 08:28:37;;;;;;;12.65;5.10;;;23.20;63.80;;;;;;6101893;23;88178;-84
2022/07/13 08:31:03;;;;;;;12.07;4.80;;;23.20;63.50;;;;;;6099568;23;87552;-86
2022/07/13 08:38:57;;;;;;;9.40;4.45;;;23.20;63.40;;;;;;6104623;23;87332;-87
2022/07/13 08:41:23;;;;;;;11.55;4.30;;;23.30;63.40;;;;;;6102759;23;87513;-86
2022/07/13 08:43:49;;;;;;;15.13;4.43;;;23.30;63.30;;;;;;6102272;23;86849;-86
2022/07/13 08:46:15;;;;;;;9.75;4.15;;;23.30;63.40;;;;;;6104872;23;86871;-85
2022/07/13 08:48:43;;;;;;;8.13;3.70;;;23.30;63.50;;;;;;6103782;23;88763;-86
2022/07/13 08:51:09;;;;;;;8.23;3.90;;;23.30;63.40;;;;;;6103449;23;88196;-86
2022/07/13 08:53:35;;;;;;;12.30;3.97;;;23.30;63.40;;;;;;6103289;23;87004;-84
2022/07/13 08:56:01;;;;;;;11.13;3.72;;;23.30;63.40;;;;;;6100020;23;86979;-84
2022/07/13 08:58:27;;;;;;;12.25;4.35;;;23.30;63.30;;;;;;6096687;23;88667;-84
2022/07/13 09:00:53;;;;;;;10.02;4.00;;;23.30;63.20;;;;;;6100794;23;86912;-84
2022/07/13 09:03:19;;;;;;;9.02;3.95;;;23.30;63.00;;;;;;6102163;23;87069;-83
2022/07/13 09:05:44;;;;;;;9.00;3.50;;;23.30;63.40;;;;;;6098163;23;86047;-84
2022/07/13 09:08:11;;;;;;;9.90;3.78;;;23.30;63.40;;;;;;6101251;23;87873;-84
2022/07/13 09:11:04;;;;;;;10.90;3.78;;;23.40;63.50;;;;;;6101142;23;88775;-83
2022/07/13 09:13:46;;;;;;;5.95;3.17;;;23.40;63.90;;;;;;6095662;23;88402;-84
2022/07/13 09:16:31;;;;;;;7.50;3.20;;;23.40;64.00;;;;;;6100135;23;87336;-85
2022/07/13 09:19:00;;;;;;;10.15;3.17;;;23.40;63.60;;;;;;6100545;23;87547;-84
2022/07/13 09:21:27;;;;;;;5.93;3.22;;;23.40;63.60;;;;;;6101126;23;87678;-83
2022/07/13 09:23:58;;;;;;;7.53;3.10;;;23.40;63.80;;;;;;6074811;23;87355;-84
2022/07/13 09:26:41;;;;;;;8.55;3.17;;;23.50;64.00;;;;;;6099742;23;88037;-85
2022/07/13 09:29:06;;;;;;;6.57;2.80;;;23.50;63.90;;;;;;6100962;23;88184;-88
2022/07/13 09:31:52;;;;;;;12.48;3.08;;;23.50;64.20;;;;;;6102659;23;87217;-86
2022/07/13 09:34:19;;;;;;;9.63;3.10;;;23.50;64.10;;;;;;6103179;23;87234;-86
2022/07/13 09:36:44;;;;;;;5.97;2.88;;;23.50;63.80;;;;;;6101558;23;86917;-84
2022/07/13 09:39:10;;;;;;;7.20;2.90;;;23.50;63.60;;;;;;6074382;23;91701;-86
2022/07/13 09:41:36;;;;;;;8.63;3.17;;;23.50;64.50;;;;;;6099813;23;87602;-86
2022/07/13 09:47:03;;;;;;;5.35;2.85;;;23.50;63.80;;;;;;6101655;23;86896;-85
2022/07/13 09:49:32;;;;;;;9.75;3.05;;;23.50;63.60;;;;;;6074758;23;89472;-86
2022/07/13 09:51:59;;;;;;;8.63;2.80;;;23.50;63.70;;;;;;6098200;23;88629;-85
2022/07/13 09:54:29;;;;;;;7.38;2.95;;;23.50;64.20;;;;;;6102233;23;87082;-88
2022/07/13 09:56:59;;;;;;;11.60;2.95;;;23.50;64.00;;;;;;6106080;23;86331;-87
2022/07/13 09:59:27;;;;;;;9.15;3.40;;;23.50;64.40;;;;;;6077370;23;89524;-87
2022/07/13 10:02:02;;;;;;;6.07;3.03;;;23.50;63.60;;;;;;6103816;23;86955;-87
2022/07/13 10:04:29;;;;;;;8.85;2.78;;;23.50;63.70;;;;;;6103255;23;88413;-87
2022/07/13 10:06:55;;;;;;;3.92;2.45;;;23.50;63.60;;;;;;6104247;23;87314;-87
2022/07/13 10:09:29;;;;;;;5.32;2.70;;;23.40;63.90;;;;;;6104014;23;88016;-87
2022/07/13 10:11:56;;;;;;;5.80;2.38;;;23.40;64.00;;;;;;6102644;23;87309;-88
2022/07/13 10:14:22;;;;;;;7.10;2.58;;;23.40;64.10;;;;;;6102768;23;86916;-87
2022/07/13 10:16:49;;;;;;;7.57;2.72;;;23.40;64.20;;;;;;6076884;23;86950;-86
2022/07/13 10:19:17;;;;;;;9.13;2.95;;;23.40;64.20;;;;;;6077379;23;90755;-87
2022/07/13 10:21:47;;;;;;;7.07;2.90;;;23.40;64.20;;;;;;6103595;23;87112;-88
2022/07/13 10:29:24;;;;;;;3.55;2.38;;;23.40;64.40;;;;;;6037711;23;89800;-85
2022/07/13 10:31:59;;;;;;;5.05;2.60;;;23.40;64.20;;;;;;6079400;23;89703;-85
2022/07/13 10:35:12;;;;;;;8.25;2.50;;;23.50;64.30;;;;;;6087103;22;87249;-83
2022/07/13 10:37:56;;;;;;;8.88;2.53;;;23.40;64.70;;;;;;6104681;23;86978;-83
2022/07/13 10:40:29;;;;;;;5.80;2.72;;;23.50;64.80;;;;;;6080053;23;89990;-85
2022/07/13 10:42:56;;;;;;;7.40;2.45;;;23.50;65.00;;;;;;6106999;23;87270;-83
2022/07/13 10:45:34;;;;;;;8.82;2.63;;;23.50;64.80;;;;;;6080683;23;86936;-83
2022/07/13 10:48:02;;;;;;;7.35;2.95;;;23.50;64.50;;;;;;6107363;23;87945;-83
2022/07/13 10:50:46;;;;;;;7.50;2.88;;;23.50;64.90;;;;;;6106359;23;86906;-83
2022/07/13 11:01:00;;;;;;;9.68;2.30;;;23.50;64.90;;;;;;6072060;23;88435;-89
2022/07/13 11:03:37;;;;;;;7.28;2.13;;;23.50;65.00;;;;;;6081298;23;89795;-88
2022/07/13 11:06:08;;;;;;;7.50;2.85;;;23.50;65.20;;;;;;6082610;23;86811;-86
2022/07/13 11:08:34;;;;;;;9.55;2.20;;;23.50;64.50;;;;;;6081864;23;90321;-88
2022/07/13 11:11:11;;;;;;;8.95;2.45;;;23.50;64.40;;;;;;6108472;23;88549;-87
2022/07/13 11:13:38;;;;;;;9.63;2.60;;;23.50;65.20;;;;;;6107080;23;88062;-88
2022/07/13 11:16:06;;;;;;;10.50;2.88;;;23.50;63.90;;;;;;6081529;23;87222;-87
2022/07/13 11:18:36;;;;;;;16.35;2.65;;;23.50;63.90;;;;;;6107780;23;87194;-88
2022/07/13 11:21:08;;;;;;;6.72;2.45;;;23.50;63.80;;;;;;6104828;23;89003;-87
2022/07/13 11:26:31;;;;;;;13.25;2.97;;;23.50;63.90;;;;;;6107877;23;86964;-87
2022/07/13 11:29:11;;;;;;;10.30;2.25;;;23.50;63.80;;;;;;6107563;23;87400;-87
2022/07/13 11:31:36;;;;;;;8.95;2.38;;;23.50;63.60;;;;;;6074733;23;90490;-88
2022/07/13 11:34:02;;;;;;;4.43;2.42;;;23.50;63.60;;;;;;6076265;23;86870;-88
2022/07/13 11:36:28;;;;;;;4.25;2.17;;;23.50;64.10;;;;;;6075253;23;86932;-88
2022/07/13 11:38:53;;;;;;;13.68;2.63;;;23.50;64.20;;;;;;6073827;23;90553;-87
2022/07/13 11:41:21;;;;;;;7.00;2.40;;;23.50;64.20;;;;;;6051846;23;91393;-91
2022/07/13 11:43:48;;;;;;;9.35;2.05;;;23.70;64.30;;;;;;5898530;23;90835;-92
2022/07/13 11:46:20;;;;;;;6.90;2.22;;;23.60;64.10;;;;;;6060445;23;87872;-92
2022/07/13 11:48:45;;;;;;;10.57;2.40;;;23.60;64.10;;;;;;6016894;23;88906;-91
2022/07/13 11:51:14;;;;;;;4.53;2.05;;;23.60;64.20;;;;;;5994068;23;89191;-90
2022/07/13 11:53:39;;;;;;;9.23;2.87;;;23.60;64.30;;;;;;6053725;23;89912;-87
2022/07/13 11:56:08;;;;;;;5.88;2.00;;;23.60;64.30;;;;;;6108940;23;86805;-87
2022/07/13 11:58:39;;;;;;;7.77;1.93;;;23.50;64.30;;;;;;6049627;23;87688;-87
2022/07/13 12:01:12;;;;;;;5.55;2.22;;;23.60;64.20;;;;;;6081571;23;91870;-87
2022/07/13 12:03:39;;;;;;;5.60;2.00;;;23.60;64.30;;;;;;6109551;23;88288;-88
2022/07/13 12:06:13;;;;;;;6.30;2.15;;;23.60;64.30;;;;;;6081384;23;86915;-88
2022/07/13 12:08:41;;;;;;;9.93;2.30;;;23.60;64.20;;;;;;6081052;23;89761;-87
2022/07/13 12:11:17;;;;;;;16.20;2.70;;;23.60;64.20;;;;;;6107118;23;88408;-88
2022/07/13 12:13:45;;;;;;;9.07;2.40;;;23.60;64.00;;;;;;6082730;23;90898;-88
2022/07/13 12:16:15;;;;;;;19.48;2.42;;;23.60;64.30;;;;;;6082725;23;86811;-88
2022/07/13 12:19:08;;;;;;;12.10;2.38;;;23.60;64.60;;;;;;6082404;23;90553;-87
2022/07/13 12:21:35;;;;;;;8.70;2.58;;;23.60;64.80;;;;;;6108740;23;88249;-87
2022/07/13 12:24:01;;;;;;;8.13;2.67;;;23.70;65.40;;;;;;6108621;23;88219;-88
2022/07/13 12:26:28;;;;;;;10.65;2.42;;;23.60;65.50;;;;;;6082390;23;86764;-87
2022/07/13 12:28:54;;;;;;;10.07;2.55;;;23.60;65.60;;;;;;6082432;23;89974;-88
2022/07/13 12:31:27;;;;;;;10.07;2.03;;;23.60;65.50;;;;;;6076346;23;90706;-88
2022/07/13 12:33:53;;;;;;;9.10;2.80;;;23.60;65.40;;;;;;6075757;23;91122;-88
2022/07/13 12:36:22;;;;;;;9.95;2.80;;;23.60;65.40;;;;;;6076132;23;87665;-88
2022/07/13 12:38:57;;;;;;;11.00;2.63;;;23.70;65.40;;;;;;6051951;23;88270;-87
2022/07/13 12:41:28;;;;;;;9.00;2.63;;;23.60;65.20;;;;;;6076564;23;88401;-87
2022/07/13 12:43:55;;;;;;;6.00;2.08;;;23.70;65.00;;;;;;6076235;23;90676;-88
2022/07/13 12:46:21;;;;;;;3.92;2.00;;;23.60;64.80;;;;;;6076810;23;86805;-88
2022/07/13 12:48:59;;;;;;;9.88;2.42;;;23.70;64.80;;;;;;6076733;23;86957;-87
2022/07/13 12:51:27;;;;;;;10.77;2.50;;;23.70;64.90;;;;;;6051604;23;91340;-88
2022/07/13 12:53:59;;;;;;;6.32;2.50;;;23.70;64.90;;;;;;6076759;23;87430;-88
2022/07/13 12:56:28;;;;;;;6.03;2.20;;;23.70;65.00;;;;;;6076692;23;87156;-88
2022/07/13 12:58:55;;;;;;;6.95;2.47;;;23.70;65.00;;;;;;6076137;23;88948;-88
2022/07/13 13:01:32;;;;;;;4.13;2.28;;;23.70;64.90;;;;;;6077294;23;89496;-87
2022/07/13 13:04:00;;;;;;;5.45;1.92;;;23.70;64.70;;;;;;6081141;23;92072;-88
2022/07/13 13:06:26;;;;;;;6.85;2.55;;;23.70;64.90;;;;;;6108297;23;86843;-88
2022/07/13 13:09:09;;;;;;;6.43;1.88;;;23.70;64.70;;;;;;6108588;23;87422;-89
2022/07/13 13:11:36;;;;;;;4.80;2.33;;;23.70;64.60;;;;;;6108441;23;87351;-90
2022/07/13 13:14:06;;;;;;;4.15;1.90;;;23.70;64.80;;;;;;6082061;23;90301;-89